sensor_id;sensor_type;location;lat;lon;timestamp;P1;durP1;ratioP1;P2;durP2;ratioP2
15629;SDS011;7914;50.842;0.166;2022-08-19T00:00:19;10.83;;;5.70;;
15629;SDS011;7914;50.842;0.166;2022-08-19T00:02:45;7.90;;;4.90;;
15629;SDS011;7914;50.842;0.166;2022-08-19T00:05:12;8.50;;;4.60;;
15629;SDS011;7914;50.842;0.166;2022-08-19T00:07:39;7.33;;;4.87;;
15629;SDS011;7914;50.842;0.166;2022-08-19T00:10:08;8.40;;;4.80;;
15629;SDS011;7914;50.842;0.166;2022-08-19T00:12:35;10.43;;;5.57;;
15629;SDS011;7914;50.842;0.166;2022-08-19T00:15:03;6.30;;;5.43;;
15629;SDS011;7914;50.842;0.166;2022-08-19T00:17:31;11.27;;;5.83;;
15629;SDS011;7914;50.842;0.166;2022-08-19T00:19:56;10.47;;;5.60;;
15629;SDS011;7914;50.842;0.166;2022-08-19T00:22:22;11.53;;;5.93;;
15629;SDS011;7914;50.842;0.166;2022-08-19T00:24:48;7.90;;;5.07;;
15629;SDS011;7914;50.842;0.166;2022-08-19T00:27:14;11.03;;;5.37;;
15629;SDS011;7914;50.842;0.166;2022-08-19T00:29:39;10.20;;;5.50;;
15629;SDS011;7914;50.842;0.166;2022-08-19T00:32:06;10.03;;;5.20;;
15629;SDS011;7914;50.842;0.166;2022-08-19T00:34:31;9.17;;;4.50;;
15629;SDS011;7914;50.842;0.166;2022-08-19T00:36:58;9.10;;;5.00;;
15629;SDS011;7914;50.842;0.166;2022-08-19T00:39:24;7.17;;;4.40;;
15629;SDS011;7914;50.842;0.166;2022-08-19T00:41:50;12.37;;;5.30;;
15629;SDS011;7914;50.842;0.166;2022-08-19T00:44:21;8.33;;;4.20;;
15629;SDS011;7914;50.842;0.166;2022-08-19T00:46:49;11.57;;;4.87;;
15629;SDS011;7914;50.842;0.166;2022-08-19T00:49:24;9.87;;;5.10;;
15629;SDS011;7914;50.842;0.166;2022-08-19T00:51:59;12.93;;;5.57;;
15629;SDS011;7914;50.842;0.166;2022-08-19T00:54:28;11.77;;;5.60;;
15629;SDS011;7914;50.842;0.166;2022-08-19T00:56:56;10.50;;;5.77;;
15629;SDS011;7914;50.842;0.166;2022-08-19T00:59:22;14.27;;;6.43;;
15629;SDS011;7914;50.842;0.166;2022-08-19T01:01:49;11.17;;;6.17;;
15629;SDS011;7914;50.842;0.166;2022-08-19T01:04:14;12.60;;;6.10;;
15629;SDS011;7914;50.842;0.166;2022-08-19T01:06:40;14.47;;;6.03;;
15629;SDS011;7914;50.842;0.166;2022-08-19T01:09:06;10.23;;;5.63;;
15629;SDS011;7914;50.842;0.166;2022-08-19T01:11:33;10.33;;;6.07;;
15629;SDS011;7914;50.842;0.166;2022-08-19T01:14:01;12.60;;;6.20;;
15629;SDS011;7914;50.842;0.166;2022-08-19T01:16:28;13.57;;;6.33;;
15629;SDS011;7914;50.842;0.166;2022-08-19T01:18:55;10.33;;;5.83;;
15629;SDS011;7914;50.842;0.166;2022-08-19T01:21:31;9.23;;;5.57;;
15629;SDS011;7914;50.842;0.166;2022-08-19T01:24:01;15.37;;;5.97;;
15629;SDS011;7914;50.842;0.166;2022-08-19T01:26:27;12.00;;;5.57;;
15629;SDS011;7914;50.842;0.166;2022-08-19T01:28:55;9.63;;;5.87;;
15629;SDS011;7914;50.842;0.166;2022-08-19T01:31:24;16.17;;;5.57;;
15629;SDS011;7914;50.842;0.166;2022-08-19T01:33:52;12.60;;;5.50;;
15629;SDS011;7914;50.842;0.166;2022-08-19T01:36:41;10.30;;;5.30;;
15629;SDS011;7914;50.842;0.166;2022-08-19T01:39:11;12.73;;;5.17;;
15629;SDS011;7914;50.842;0.166;2022-08-19T01:41:39;12.97;;;5.63;;
15629;SDS011;7914;50.842;0.166;2022-08-19T01:44:06;13.80;;;6.20;;
15629;SDS011;7914;50.842;0.166;2022-08-19T01:46:33;12.17;;;6.40;;
15629;SDS011;7914;50.842;0.166;2022-08-19T01:49:00;10.97;;;5.73;;
15629;SDS011;7914;50.842;0.166;2022-08-19T01:51:26;10.77;;;6.37;;
15629;SDS011;7914;50.842;0.166;2022-08-19T01:53:53;10.97;;;5.73;;
15629;SDS011;7914;50.842;0.166;2022-08-19T01:56:19;8.60;;;5.20;;
15629;SDS011;7914;50.842;0.166;2022-08-19T01:59:00;7.20;;;5.00;;
15629;SDS011;7914;50.842;0.166;2022-08-19T02:01:28;10.33;;;5.33;;
15629;SDS011;7914;50.842;0.166;2022-08-19T02:03:57;9.13;;;5.17;;
15629;SDS011;7914;50.842;0.166;2022-08-19T02:06:23;10.30;;;5.33;;
15629;SDS011;7914;50.842;0.166;2022-08-19T02:08:49;12.60;;;5.47;;
15629;SDS011;7914;50.842;0.166;2022-08-19T02:11:23;11.50;;;5.17;;
15629;SDS011;7914;50.842;0.166;2022-08-19T02:13:54;8.83;;;5.30;;
15629;SDS011;7914;50.842;0.166;2022-08-19T02:16:20;10.90;;;5.33;;
15629;SDS011;7914;50.842;0.166;2022-08-19T02:18:46;8.93;;;5.10;;
15629;SDS011;7914;50.842;0.166;2022-08-19T02:21:16;10.77;;;4.67;;
15629;SDS011;7914;50.842;0.166;2022-08-19T02:23:44;10.10;;;4.87;;
15629;SDS011;7914;50.842;0.166;2022-08-19T02:26:11;12.60;;;5.47;;
15629;SDS011;7914;50.842;0.166;2022-08-19T02:28:37;12.77;;;5.37;;
15629;SDS011;7914;50.842;0.166;2022-08-19T02:31:08;9.07;;;5.10;;
15629;SDS011;7914;50.842;0.166;2022-08-19T02:33:38;10.33;;;4.80;;
15629;SDS011;7914;50.842;0.166;2022-08-19T02:36:04;8.50;;;4.80;;
15629;SDS011;7914;50.842;0.166;2022-08-19T02:38:31;6.63;;;4.07;;
15629;SDS011;7914;50.842;0.166;2022-08-19T02:41:02;7.20;;;4.87;;
15629;SDS011;7914;50.842;0.166;2022-08-19T02:43:30;11.00;;;5.87;;
15629;SDS011;7914;50.842;0.166;2022-08-19T02:45:57;8.87;;;5.77;;
15629;SDS011;7914;50.842;0.166;2022-08-19T02:48:23;12.13;;;5.87;;
15629;SDS011;7914;50.842;0.166;2022-08-19T02:50:50;16.37;;;6.33;;
15629;SDS011;7914;50.842;0.166;2022-08-19T02:53:24;15.00;;;5.90;;
15629;SDS011;7914;50.842;0.166;2022-08-19T02:55:51;9.27;;;5.37;;
15629;SDS011;7914;50.842;0.166;2022-08-19T02:58:18;10.13;;;5.20;;
15629;SDS011;7914;50.842;0.166;2022-08-19T03:00:47;11.07;;;5.33;;
15629;SDS011;7914;50.842;0.166;2022-08-19T03:03:14;9.60;;;5.40;;
15629;SDS011;7914;50.842;0.166;2022-08-19T03:05:41;12.23;;;5.17;;
15629;SDS011;7914;50.842;0.166;2022-08-19T03:08:07;10.67;;;5.27;;
15629;SDS011;7914;50.842;0.166;2022-08-19T03:10:46;13.53;;;5.43;;
15629;SDS011;7914;50.842;0.166;2022-08-19T03:13:14;10.70;;;5.20;;
15629;SDS011;7914;50.842;0.166;2022-08-19T03:15:45;8.97;;;5.67;;
15629;SDS011;7914;50.842;0.166;2022-08-19T03:18:12;10.93;;;5.50;;
15629;SDS011;7914;50.842;0.166;2022-08-19T03:20:40;13.93;;;5.40;;
15629;SDS011;7914;50.842;0.166;2022-08-19T03:23:11;10.30;;;4.80;;
15629;SDS011;7914;50.842;0.166;2022-08-19T03:25:40;14.37;;;5.50;;
15629;SDS011;7914;50.842;0.166;2022-08-19T03:28:09;10.03;;;4.47;;
15629;SDS011;7914;50.842;0.166;2022-08-19T03:30:37;10.67;;;5.13;;
15629;SDS011;7914;50.842;0.166;2022-08-19T03:33:05;19.33;;;6.03;;
15629;SDS011;7914;50.842;0.166;2022-08-19T03:35:32;15.30;;;5.33;;
15629;SDS011;7914;50.842;0.166;2022-08-19T03:38:02;13.33;;;5.40;;
15629;SDS011;7914;50.842;0.166;2022-08-19T03:40:31;14.03;;;5.30;;
15629;SDS011;7914;50.842;0.166;2022-08-19T03:42:59;14.73;;;5.07;;
15629;SDS011;7914;50.842;0.166;2022-08-19T03:45:25;12.53;;;5.20;;
15629;SDS011;7914;50.842;0.166;2022-08-19T03:47:52;11.43;;;5.20;;
15629;SDS011;7914;50.842;0.166;2022-08-19T03:50:18;13.23;;;4.83;;
15629;SDS011;7914;50.842;0.166;2022-08-19T03:52:48;17.23;;;5.70;;
15629;SDS011;7914;50.842;0.166;2022-08-19T03:55:15;16.97;;;5.90;;
15629;SDS011;7914;50.842;0.166;2022-08-19T03:57:42;10.83;;;4.63;;
15629;SDS011;7914;50.842;0.166;2022-08-19T04:00:07;11.67;;;4.83;;
15629;SDS011;7914;50.842;0.166;2022-08-19T04:02:34;16.90;;;5.13;;
15629;SDS011;7914;50.842;0.166;2022-08-19T04:05:00;11.40;;;4.60;;
15629;SDS011;7914;50.842;0.166;2022-08-19T04:07:25;10.43;;;4.63;;
15629;SDS011;7914;50.842;0.166;2022-08-19T04:09:51;11.87;;;4.50;;
15629;SDS011;7914;50.842;0.166;2022-08-19T04:12:18;11.97;;;4.50;;
15629;SDS011;7914;50.842;0.166;2022-08-19T04:14:45;15.23;;;4.80;;
15629;SDS011;7914;50.842;0.166;2022-08-19T04:17:11;10.93;;;4.93;;
15629;SDS011;7914;50.842;0.166;2022-08-19T04:19:39;15.87;;;5.07;;
15629;SDS011;7914;50.842;0.166;2022-08-19T04:22:06;15.50;;;5.90;;
15629;SDS011;7914;50.842;0.166;2022-08-19T04:24:35;11.20;;;5.37;;
15629;SDS011;7914;50.842;0.166;2022-08-19T04:27:01;12.20;;;5.10;;
15629;SDS011;7914;50.842;0.166;2022-08-19T04:29:28;14.73;;;5.63;;
15629;SDS011;7914;50.842;0.166;2022-08-19T04:31:55;15.00;;;5.40;;
15629;SDS011;7914;50.842;0.166;2022-08-19T04:34:22;13.23;;;5.00;;
15629;SDS011;7914;50.842;0.166;2022-08-19T04:36:50;10.93;;;5.40;;
15629;SDS011;7914;50.842;0.166;2022-08-19T04:39:29;8.63;;;4.70;;
15629;SDS011;7914;50.842;0.166;2022-08-19T04:42:14;11.83;;;4.90;;
15629;SDS011;7914;50.842;0.166;2022-08-19T04:45:00;12.43;;;5.17;;
15629;SDS011;7914;50.842;0.166;2022-08-19T04:47:27;11.30;;;5.00;;
15629;SDS011;7914;50.842;0.166;2022-08-19T04:49:53;15.20;;;5.30;;
15629;SDS011;7914;50.842;0.166;2022-08-19T04:52:18;14.47;;;5.43;;
15629;SDS011;7914;50.842;0.166;2022-08-19T04:54:45;18.73;;;5.80;;
15629;SDS011;7914;50.842;0.166;2022-08-19T04:57:10;14.37;;;5.53;;
15629;SDS011;7914;50.842;0.166;2022-08-19T04:59:37;17.43;;;5.50;;
15629;SDS011;7914;50.842;0.166;2022-08-19T05:02:03;15.57;;;5.80;;
15629;SDS011;7914;50.842;0.166;2022-08-19T05:04:29;20.90;;;5.90;;
15629;SDS011;7914;50.842;0.166;2022-08-19T05:06:57;18.33;;;5.90;;
15629;SDS011;7914;50.842;0.166;2022-08-19T05:09:23;16.27;;;6.30;;
15629;SDS011;7914;50.842;0.166;2022-08-19T05:11:48;18.90;;;5.83;;
15629;SDS011;7914;50.842;0.166;2022-08-19T05:14:16;25.77;;;6.87;;
15629;SDS011;7914;50.842;0.166;2022-08-19T05:16:42;21.23;;;6.40;;
15629;SDS011;7914;50.842;0.166;2022-08-19T05:19:07;22.00;;;6.40;;
15629;SDS011;7914;50.842;0.166;2022-08-19T05:21:52;16.80;;;4.93;;
15629;SDS011;7914;50.842;0.166;2022-08-19T05:24:37;9.93;;;4.00;;
15629;SDS011;7914;50.842;0.166;2022-08-19T05:27:03;10.43;;;3.70;;
15629;SDS011;7914;50.842;0.166;2022-08-19T05:29:30;9.23;;;3.93;;
15629;SDS011;7914;50.842;0.166;2022-08-19T05:31:59;9.77;;;4.00;;
15629;SDS011;7914;50.842;0.166;2022-08-19T05:34:26;7.07;;;3.77;;
15629;SDS011;7914;50.842;0.166;2022-08-19T05:36:54;9.13;;;3.93;;
15629;SDS011;7914;50.842;0.166;2022-08-19T05:39:25;12.33;;;4.20;;
15629;SDS011;7914;50.842;0.166;2022-08-19T05:41:54;13.50;;;4.50;;
15629;SDS011;7914;50.842;0.166;2022-08-19T05:44:23;14.03;;;5.40;;
15629;SDS011;7914;50.842;0.166;2022-08-19T05:46:49;16.23;;;4.90;;
15629;SDS011;7914;50.842;0.166;2022-08-19T05:49:18;15.73;;;5.17;;
15629;SDS011;7914;50.842;0.166;2022-08-19T05:51:45;15.63;;;5.10;;
15629;SDS011;7914;50.842;0.166;2022-08-19T05:54:10;19.33;;;5.30;;
15629;SDS011;7914;50.842;0.166;2022-08-19T05:56:39;19.63;;;4.97;;
15629;SDS011;7914;50.842;0.166;2022-08-19T05:59:06;18.27;;;5.20;;
15629;SDS011;7914;50.842;0.166;2022-08-19T06:01:35;17.37;;;5.33;;
15629;SDS011;7914;50.842;0.166;2022-08-19T06:04:05;15.43;;;5.50;;
15629;SDS011;7914;50.842;0.166;2022-08-19T06:06:31;16.13;;;5.00;;
15629;SDS011;7914;50.842;0.166;2022-08-19T06:08:59;18.47;;;5.27;;
15629;SDS011;7914;50.842;0.166;2022-08-19T06:11:46;18.30;;;5.47;;
15629;SDS011;7914;50.842;0.166;2022-08-19T06:14:14;15.27;;;5.93;;
15629;SDS011;7914;50.842;0.166;2022-08-19T06:16:43;13.57;;;5.30;;
15629;SDS011;7914;50.842;0.166;2022-08-19T06:19:11;11.57;;;5.10;;
15629;SDS011;7914;50.842;0.166;2022-08-19T06:21:41;20.87;;;6.33;;
15629;SDS011;7914;50.842;0.166;2022-08-19T06:24:10;11.43;;;4.95;;
15629;SDS011;7914;50.842;0.166;2022-08-19T06:26:38;11.27;;;5.17;;
15629;SDS011;7914;50.842;0.166;2022-08-19T06:29:06;15.77;;;5.45;;
15629;SDS011;7914;50.842;0.166;2022-08-19T06:31:33;12.65;;;5.05;;
15629;SDS011;7914;50.842;0.166;2022-08-19T06:34:01;9.97;;;4.43;;
15629;SDS011;7914;50.842;0.166;2022-08-19T06:36:35;10.60;;;4.45;;
15629;SDS011;7914;50.842;0.166;2022-08-19T06:39:04;10.73;;;4.57;;
15629;SDS011;7914;50.842;0.166;2022-08-19T06:41:32;7.13;;;4.05;;
15629;SDS011;7914;50.842;0.166;2022-08-19T06:44:01;7.88;;;4.25;;
15629;SDS011;7914;50.842;0.166;2022-08-19T06:46:28;8.93;;;4.40;;
15629;SDS011;7914;50.842;0.166;2022-08-19T06:48:54;9.48;;;4.32;;
15629;SDS011;7914;50.842;0.166;2022-08-19T06:51:20;10.65;;;4.22;;
15629;SDS011;7914;50.842;0.166;2022-08-19T06:53:50;9.63;;;3.60;;
15629;SDS011;7914;50.842;0.166;2022-08-19T06:56:20;7.40;;;3.28;;
15629;SDS011;7914;50.842;0.166;2022-08-19T06:58:50;7.57;;;3.42;;
15629;SDS011;7914;50.842;0.166;2022-08-19T07:01:17;8.93;;;3.45;;
15629;SDS011;7914;50.842;0.166;2022-08-19T07:03:44;8.25;;;3.40;;
15629;SDS011;7914;50.842;0.166;2022-08-19T07:06:12;10.98;;;3.08;;
15629;SDS011;7914;50.842;0.166;2022-08-19T07:08:43;6.07;;;3.05;;
15629;SDS011;7914;50.842;0.166;2022-08-19T07:11:11;8.18;;;3.13;;
15629;SDS011;7914;50.842;0.166;2022-08-19T07:13:38;8.88;;;3.20;;
15629;SDS011;7914;50.842;0.166;2022-08-19T07:16:07;7.60;;;3.00;;
15629;SDS011;7914;50.842;0.166;2022-08-19T07:18:34;6.25;;;2.83;;
15629;SDS011;7914;50.842;0.166;2022-08-19T07:21:08;7.13;;;2.95;;
15629;SDS011;7914;50.842;0.166;2022-08-19T07:23:37;9.27;;;3.35;;
15629;SDS011;7914;50.842;0.166;2022-08-19T07:26:06;6.65;;;3.10;;
15629;SDS011;7914;50.842;0.166;2022-08-19T07:28:39;7.65;;;3.05;;
15629;SDS011;7914;50.842;0.166;2022-08-19T07:31:06;9.38;;;3.20;;
15629;SDS011;7914;50.842;0.166;2022-08-19T07:33:32;7.55;;;3.28;;
15629;SDS011;7914;50.842;0.166;2022-08-19T07:36:01;8.98;;;3.50;;
15629;SDS011;7914;50.842;0.166;2022-08-19T07:38:32;5.63;;;3.45;;
15629;SDS011;7914;50.842;0.166;2022-08-19T07:40:58;5.85;;;3.40;;
15629;SDS011;7914;50.842;0.166;2022-08-19T07:43:25;10.27;;;3.60;;
15629;SDS011;7914;50.842;0.166;2022-08-19T07:45:52;4.43;;;3.13;;
15629;SDS011;7914;50.842;0.166;2022-08-19T07:48:25;5.60;;;2.90;;
15629;SDS011;7914;50.842;0.166;2022-08-19T07:50:52;7.10;;;2.75;;
15629;SDS011;7914;50.842;0.166;2022-08-19T07:53:24;6.45;;;2.47;;
15629;SDS011;7914;50.842;0.166;2022-08-19T07:55:50;5.97;;;2.80;;
15629;SDS011;7914;50.842;0.166;2022-08-19T07:58:18;6.28;;;2.70;;
15629;SDS011;7914;50.842;0.166;2022-08-19T08:00:45;4.70;;;2.75;;
15629;SDS011;7914;50.842;0.166;2022-08-19T08:03:13;4.25;;;2.35;;
15629;SDS011;7914;50.842;0.166;2022-08-19T08:05:41;6.47;;;2.70;;
15629;SDS011;7914;50.842;0.166;2022-08-19T08:08:25;6.25;;;2.60;;
15629;SDS011;7914;50.842;0.166;2022-08-19T08:11:00;5.70;;;2.47;;
15629;SDS011;7914;50.842;0.166;2022-08-19T08:13:27;4.45;;;2.30;;
15629;SDS011;7914;50.842;0.166;2022-08-19T08:15:53;9.20;;;2.70;;
15629;SDS011;7914;50.842;0.166;2022-08-19T08:18:19;6.22;;;2.65;;
15629;SDS011;7914;50.842;0.166;2022-08-19T08:20:46;8.00;;;2.50;;
15629;SDS011;7914;50.842;0.166;2022-08-19T08:23:11;5.40;;;2.60;;
15629;SDS011;7914;50.842;0.166;2022-08-19T08:25:56;5.57;;;2.33;;
15629;SDS011;7914;50.842;0.166;2022-08-19T08:28:22;7.32;;;2.78;;
15629;SDS011;7914;50.842;0.166;2022-08-19T08:30:49;7.03;;;2.40;;
15629;SDS011;7914;50.842;0.166;2022-08-19T08:33:22;5.05;;;2.22;;
15629;SDS011;7914;50.842;0.166;2022-08-19T08:35:49;4.35;;;2.00;;
15629;SDS011;7914;50.842;0.166;2022-08-19T08:38:15;6.05;;;2.25;;
15629;SDS011;7914;50.842;0.166;2022-08-19T08:40:53;4.45;;;2.00;;
15629;SDS011;7914;50.842;0.166;2022-08-19T08:43:35;3.60;;;1.60;;
15629;SDS011;7914;50.842;0.166;2022-08-19T08:46:11;5.00;;;1.50;;
15629;SDS011;7914;50.842;0.166;2022-08-19T08:51:31;3.70;;;1.45;;
15629;SDS011;7914;50.842;0.166;2022-08-19T08:54:07;3.63;;;1.65;;
15629;SDS011;7914;50.842;0.166;2022-08-19T08:56:40;3.42;;;1.67;;
15629;SDS011;7914;50.842;0.166;2022-08-19T08:59:10;9.02;;;2.80;;
15629;SDS011;7914;50.842;0.166;2022-08-19T09:01:42;8.30;;;2.95;;
15629;SDS011;7914;50.842;0.166;2022-08-19T09:04:08;10.32;;;3.25;;
15629;SDS011;7914;50.842;0.166;2022-08-19T09:06:42;9.70;;;3.08;;
15629;SDS011;7914;50.842;0.166;2022-08-19T09:10:15;10.88;;;3.28;;
15629;SDS011;7914;50.842;0.166;2022-08-19T09:14:49;11.25;;;3.10;;
15629;SDS011;7914;50.842;0.166;2022-08-19T09:17:25;7.38;;;3.20;;
15629;SDS011;7914;50.842;0.166;2022-08-19T09:22:48;10.90;;;2.92;;
15629;SDS011;7914;50.842;0.166;2022-08-19T09:25:19;7.97;;;2.70;;
15629;SDS011;7914;50.842;0.166;2022-08-19T09:27:47;9.93;;;3.30;;
15629;SDS011;7914;50.842;0.166;2022-08-19T09:30:17;11.82;;;3.20;;
15629;SDS011;7914;50.842;0.166;2022-08-19T09:32:52;11.43;;;3.10;;
15629;SDS011;7914;50.842;0.166;2022-08-19T09:35:19;9.85;;;3.50;;
15629;SDS011;7914;50.842;0.166;2022-08-19T09:37:47;8.43;;;2.85;;
15629;SDS011;7914;50.842;0.166;2022-08-19T09:40:14;9.27;;;2.97;;
15629;SDS011;7914;50.842;0.166;2022-08-19T09:42:40;8.30;;;2.90;;
15629;SDS011;7914;50.842;0.166;2022-08-19T09:45:08;6.75;;;2.25;;
15629;SDS011;7914;50.842;0.166;2022-08-19T09:47:35;11.18;;;2.70;;
15629;SDS011;7914;50.842;0.166;2022-08-19T09:50:03;7.10;;;2.50;;
15629;SDS011;7914;50.842;0.166;2022-08-19T09:52:32;9.13;;;2.90;;
15629;SDS011;7914;50.842;0.166;2022-08-19T09:54:59;8.93;;;2.60;;
15629;SDS011;7914;50.842;0.166;2022-08-19T09:57:25;8.15;;;2.15;;
15629;SDS011;7914;50.842;0.166;2022-08-19T09:59:50;9.20;;;2.58;;
15629;SDS011;7914;50.842;0.166;2022-08-19T10:02:16;7.32;;;2.80;;
15629;SDS011;7914;50.842;0.166;2022-08-19T10:04:42;10.07;;;2.88;;
15629;SDS011;7914;50.842;0.166;2022-08-19T10:07:31;8.63;;;2.83;;
15629;SDS011;7914;50.842;0.166;2022-08-19T10:09:57;10.93;;;2.75;;
15629;SDS011;7914;50.842;0.166;2022-08-19T10:12:23;11.20;;;3.22;;
15629;SDS011;7914;50.842;0.166;2022-08-19T10:14:49;11.63;;;3.20;;
15629;SDS011;7914;50.842;0.166;2022-08-19T10:17:16;10.15;;;2.97;;
15629;SDS011;7914;50.842;0.166;2022-08-19T10:19:42;10.98;;;3.25;;
15629;SDS011;7914;50.842;0.166;2022-08-19T10:22:08;14.50;;;3.50;;
15629;SDS011;7914;50.842;0.166;2022-08-19T10:24:39;9.65;;;2.53;;
15629;SDS011;7914;50.842;0.166;2022-08-19T10:27:06;8.57;;;2.70;;
15629;SDS011;7914;50.842;0.166;2022-08-19T10:29:32;9.93;;;3.13;;
15629;SDS011;7914;50.842;0.166;2022-08-19T10:32:03;8.52;;;3.22;;
15629;SDS011;7914;50.842;0.166;2022-08-19T10:34:33;5.95;;;2.35;;
15629;SDS011;7914;50.842;0.166;2022-08-19T10:37:01;6.95;;;2.15;;
15629;SDS011;7914;50.842;0.166;2022-08-19T10:39:28;6.03;;;2.10;;
15629;SDS011;7914;50.842;0.166;2022-08-19T10:41:55;3.83;;;1.95;;
15629;SDS011;7914;50.842;0.166;2022-08-19T10:44:21;4.80;;;2.05;;
15629;SDS011;7914;50.842;0.166;2022-08-19T10:46:48;4.25;;;1.95;;
15629;SDS011;7914;50.842;0.166;2022-08-19T10:49:15;4.32;;;1.70;;
15629;SDS011;7914;50.842;0.166;2022-08-19T10:51:41;4.03;;;1.65;;
15629;SDS011;7914;50.842;0.166;2022-08-19T10:54:26;6.63;;;1.90;;
15629;SDS011;7914;50.842;0.166;2022-08-19T10:57:13;2.47;;;1.70;;
15629;SDS011;7914;50.842;0.166;2022-08-19T10:59:40;3.03;;;1.50;;
15629;SDS011;7914;50.842;0.166;2022-08-19T11:02:08;5.10;;;1.80;;
15629;SDS011;7914;50.842;0.166;2022-08-19T11:04:36;5.95;;;1.75;;
15629;SDS011;7914;50.842;0.166;2022-08-19T11:07:03;4.75;;;1.90;;
15629;SDS011;7914;50.842;0.166;2022-08-19T11:09:30;3.90;;;1.80;;
15629;SDS011;7914;50.842;0.166;2022-08-19T11:11:56;5.25;;;1.85;;
15629;SDS011;7914;50.842;0.166;2022-08-19T11:14:22;8.88;;;2.17;;
15629;SDS011;7914;50.842;0.166;2022-08-19T11:16:50;4.97;;;1.70;;
15629;SDS011;7914;50.842;0.166;2022-08-19T11:19:20;7.00;;;1.70;;
15629;SDS011;7914;50.842;0.166;2022-08-19T11:21:48;4.55;;;1.40;;
15629;SDS011;7914;50.842;0.166;2022-08-19T11:24:19;1.83;;;1.30;;
15629;SDS011;7914;50.842;0.166;2022-08-19T11:26:47;2.90;;;1.30;;
15629;SDS011;7914;50.842;0.166;2022-08-19T11:29:15;2.58;;;1.30;;
15629;SDS011;7914;50.842;0.166;2022-08-19T11:31:43;2.40;;;1.27;;
15629;SDS011;7914;50.842;0.166;2022-08-19T11:34:11;1.27;;;0.90;;
15629;SDS011;7914;50.842;0.166;2022-08-19T11:36:41;4.28;;;1.30;;
15629;SDS011;7914;50.842;0.166;2022-08-19T11:39:09;3.08;;;1.30;;
15629;SDS011;7914;50.842;0.166;2022-08-19T11:41:36;2.17;;;1.13;;
15629;SDS011;7914;50.842;0.166;2022-08-19T11:44:01;2.13;;;1.30;;
15629;SDS011;7914;50.842;0.166;2022-08-19T11:46:28;2.30;;;1.17;;
15629;SDS011;7914;50.842;0.166;2022-08-19T11:48:55;3.28;;;1.52;;
15629;SDS011;7914;50.842;0.166;2022-08-19T11:51:22;2.05;;;1.30;;
15629;SDS011;7914;50.842;0.166;2022-08-19T11:53:52;2.55;;;1.20;;
15629;SDS011;7914;50.842;0.166;2022-08-19T11:56:18;3.10;;;1.65;;
15629;SDS011;7914;50.842;0.166;2022-08-19T11:58:44;3.88;;;1.70;;
15629;SDS011;7914;50.842;0.166;2022-08-19T12:01:11;3.78;;;1.60;;
15629;SDS011;7914;50.842;0.166;2022-08-19T12:03:40;4.85;;;1.80;;
15629;SDS011;7914;50.842;0.166;2022-08-19T12:06:09;1.30;;;1.17;;
15629;SDS011;7914;50.842;0.166;2022-08-19T12:08:38;1.13;;;1.00;;
15629;SDS011;7914;50.842;0.166;2022-08-19T12:11:05;2.72;;;1.20;;
15629;SDS011;7914;50.842;0.166;2022-08-19T12:13:33;3.85;;;1.45;;
15629;SDS011;7914;50.842;0.166;2022-08-19T12:15:59;3.40;;;1.17;;
15629;SDS011;7914;50.842;0.166;2022-08-19T12:18:26;1.80;;;1.05;;
15629;SDS011;7914;50.842;0.166;2022-08-19T12:20:52;1.88;;;1.20;;
15629;SDS011;7914;50.842;0.166;2022-08-19T12:23:21;1.92;;;1.20;;
15629;SDS011;7914;50.842;0.166;2022-08-19T12:25:48;2.45;;;1.15;;
15629;SDS011;7914;50.842;0.166;2022-08-19T12:28:20;1.98;;;1.20;;
15629;SDS011;7914;50.842;0.166;2022-08-19T12:30:48;1.95;;;1.10;;
15629;SDS011;7914;50.842;0.166;2022-08-19T12:33:18;3.30;;;1.30;;
15629;SDS011;7914;50.842;0.166;2022-08-19T12:35:48;3.95;;;1.60;;
15629;SDS011;7914;50.842;0.166;2022-08-19T12:38:14;6.00;;;1.20;;
15629;SDS011;7914;50.842;0.166;2022-08-19T12:40:40;2.65;;;1.23;;
15629;SDS011;7914;50.842;0.166;2022-08-19T12:43:06;2.30;;;1.35;;
15629;SDS011;7914;50.842;0.166;2022-08-19T12:45:33;2.17;;;1.40;;
15629;SDS011;7914;50.842;0.166;2022-08-19T12:47:59;1.98;;;1.45;;
15629;SDS011;7914;50.842;0.166;2022-08-19T12:50:25;3.13;;;1.50;;
15629;SDS011;7914;50.842;0.166;2022-08-19T12:52:50;3.35;;;1.70;;
15629;SDS011;7914;50.842;0.166;2022-08-19T12:55:16;4.07;;;1.67;;
15629;SDS011;7914;50.842;0.166;2022-08-19T12:57:44;3.03;;;1.50;;
15629;SDS011;7914;50.842;0.166;2022-08-19T13:00:11;3.90;;;1.55;;
15629;SDS011;7914;50.842;0.166;2022-08-19T13:02:40;3.88;;;1.52;;
15629;SDS011;7914;50.842;0.166;2022-08-19T13:05:10;4.50;;;1.42;;
15629;SDS011;7914;50.842;0.166;2022-08-19T13:07:37;3.08;;;1.77;;
15629;SDS011;7914;50.842;0.166;2022-08-19T13:10:08;7.53;;;2.25;;
15629;SDS011;7914;50.842;0.166;2022-08-19T13:12:36;3.92;;;1.90;;
15629;SDS011;7914;50.842;0.166;2022-08-19T13:15:03;3.75;;;1.92;;
15629;SDS011;7914;50.842;0.166;2022-08-19T13:17:30;7.05;;;2.15;;
15629;SDS011;7914;50.842;0.166;2022-08-19T13:19:55;7.32;;;2.28;;
15629;SDS011;7914;50.842;0.166;2022-08-19T13:22:21;4.30;;;1.75;;
15629;SDS011;7914;50.842;0.166;2022-08-19T13:24:48;7.18;;;1.95;;
15629;SDS011;7914;50.842;0.166;2022-08-19T13:27:14;5.50;;;2.00;;
15629;SDS011;7914;50.842;0.166;2022-08-19T13:29:40;9.10;;;2.83;;
15629;SDS011;7914;50.842;0.166;2022-08-19T13:32:25;6.93;;;2.20;;
15629;SDS011;7914;50.842;0.166;2022-08-19T13:35:09;5.10;;;2.60;;
15629;SDS011;7914;50.842;0.166;2022-08-19T13:37:35;6.13;;;2.38;;
15629;SDS011;7914;50.842;0.166;2022-08-19T13:40:07;5.82;;;2.55;;
15629;SDS011;7914;50.842;0.166;2022-08-19T13:42:41;7.53;;;2.63;;
15629;SDS011;7914;50.842;0.166;2022-08-19T13:45:08;6.50;;;2.50;;
15629;SDS011;7914;50.842;0.166;2022-08-19T13:47:35;6.97;;;2.70;;
15629;SDS011;7914;50.842;0.166;2022-08-19T13:50:08;8.23;;;2.55;;
15629;SDS011;7914;50.842;0.166;2022-08-19T13:52:36;8.02;;;2.78;;
15629;SDS011;7914;50.842;0.166;2022-08-19T13:55:03;7.80;;;2.30;;
15629;SDS011;7914;50.842;0.166;2022-08-19T13:57:29;6.07;;;2.30;;
15629;SDS011;7914;50.842;0.166;2022-08-19T13:59:56;8.15;;;2.70;;
15629;SDS011;7914;50.842;0.166;2022-08-19T14:02:23;8.00;;;2.50;;
15629;SDS011;7914;50.842;0.166;2022-08-19T14:04:49;6.28;;;2.50;;
15629;SDS011;7914;50.842;0.166;2022-08-19T14:07:15;5.43;;;2.20;;
15629;SDS011;7914;50.842;0.166;2022-08-19T14:09:41;6.70;;;2.40;;
15629;SDS011;7914;50.842;0.166;2022-08-19T14:12:07;7.72;;;2.90;;
15629;SDS011;7914;50.842;0.166;2022-08-19T14:14:37;7.90;;;2.58;;
15629;SDS011;7914;50.842;0.166;2022-08-19T14:17:06;8.35;;;2.70;;
15629;SDS011;7914;50.842;0.166;2022-08-19T14:19:34;10.93;;;2.95;;
15629;SDS011;7914;50.842;0.166;2022-08-19T14:21:59;5.93;;;2.55;;
15629;SDS011;7914;50.842;0.166;2022-08-19T14:24:26;7.88;;;2.80;;
15629;SDS011;7914;50.842;0.166;2022-08-19T14:26:52;6.82;;;2.75;;
15629;SDS011;7914;50.842;0.166;2022-08-19T14:29:17;8.30;;;2.72;;
15629;SDS011;7914;50.842;0.166;2022-08-19T14:31:43;5.75;;;2.90;;
15629;SDS011;7914;50.842;0.166;2022-08-19T14:34:09;10.05;;;2.53;;
15629;SDS011;7914;50.842;0.166;2022-08-19T14:36:35;7.68;;;2.92;;
15629;SDS011;7914;50.842;0.166;2022-08-19T14:39:02;4.32;;;2.63;;
15629;SDS011;7914;50.842;0.166;2022-08-19T14:41:29;6.40;;;2.45;;
15629;SDS011;7914;50.842;0.166;2022-08-19T14:43:55;6.88;;;2.65;;
15629;SDS011;7914;50.842;0.166;2022-08-19T14:46:25;7.80;;;2.50;;
15629;SDS011;7914;50.842;0.166;2022-08-19T14:48:53;4.00;;;2.22;;
15629;SDS011;7914;50.842;0.166;2022-08-19T14:51:20;7.63;;;2.78;;
15629;SDS011;7914;50.842;0.166;2022-08-19T14:53:47;6.22;;;2.15;;
15629;SDS011;7914;50.842;0.166;2022-08-19T14:56:15;5.07;;;2.10;;
15629;SDS011;7914;50.842;0.166;2022-08-19T14:58:42;10.50;;;3.00;;
15629;SDS011;7914;50.842;0.166;2022-08-19T15:01:10;9.05;;;3.30;;
15629;SDS011;7914;50.842;0.166;2022-08-19T15:03:37;8.38;;;3.05;;
15629;SDS011;7914;50.842;0.166;2022-08-19T15:06:06;8.52;;;2.95;;
15629;SDS011;7914;50.842;0.166;2022-08-19T15:08:33;7.82;;;3.00;;
15629;SDS011;7914;50.842;0.166;2022-08-19T15:11:01;9.43;;;2.90;;